createdAt,value
2022-11-25T00:00:55.645Z,47.08
2022-11-25T00:01:58.817Z,46.75
2022-11-25T00:03:02.398Z,39.05
2022-11-25T00:04:06.061Z,47.92
2022-11-25T00:05:08.465Z,47.97
2022-11-25T00:06:14.491Z,46.53
2022-11-25T00:07:16.592Z,48.22
2022-11-25T00:08:19.690Z,46.70
2022-11-25T00:09:22.191Z,45.53
2022-11-25T00:10:25.306Z,50.58
2022-11-25T00:11:27.929Z,47.70
2022-11-25T00:12:30.980Z,54.25
2022-11-25T00:13:33.693Z,48.80
2022-11-25T00:14:37.014Z,44.83
2022-11-25T00:15:39.287Z,43.38
2022-11-25T00:16:47.720Z,53.50
2022-11-25T00:17:50.713Z,38.95
2022-11-25T00:18:57.645Z,44.92
2022-11-25T00:20:01.654Z,42.70
2022-11-25T00:21:08.383Z,47.90
2022-11-25T00:22:11.459Z,45.75
2022-11-25T00:23:13.470Z,47.97
2022-11-25T00:24:17.772Z,43.35
2022-11-25T00:25:19.822Z,51.42
2022-11-25T00:26:24.847Z,53.08
2022-11-25T00:27:26.895Z,56.72
2022-11-25T00:28:29.979Z,49.47
2022-11-25T00:29:32.089Z,48.25
2022-11-25T00:30:35.109Z,45.17
2022-11-25T00:31:39.140Z,57.63
2022-11-25T00:32:42.251Z,56.75
2022-11-25T00:33:45.136Z,56.53
2022-11-25T00:34:49.560Z,69.50
2022-11-25T00:35:51.636Z,85.07
2022-11-25T00:36:54.695Z,89.53
2022-11-25T00:37:56.795Z,64.75
2022-11-25T00:39:01.617Z,122.00
2022-11-25T00:40:04.790Z,109.82
2022-11-25T00:41:25.599Z,142.55
2022-11-25T00:42:46.458Z,123.85
2022-11-25T00:45:10.484Z,96.35
2022-11-25T00:46:12.632Z,130.35
2022-11-25T00:47:17.471Z,83.68
2022-11-25T00:48:19.540Z,151.95
2022-11-25T00:49:22.934Z,149.18
2022-11-25T00:50:26.328Z,104.03
2022-11-25T00:51:30.127Z,140.40
2022-11-25T00:52:36.878Z,84.18
2022-11-25T00:53:39.990Z,65.22
2022-11-25T00:54:42.155Z,78.60
2022-11-25T00:56:08.119Z,64.90
2022-11-25T00:57:11.274Z,70.50
2022-11-25T00:58:13.652Z,65.70
2022-11-25T00:59:16.722Z,59.80
2022-11-25T01:00:19.104Z,51.72
2022-11-25T01:01:22.240Z,71.05
2022-11-25T01:02:24.509Z,152.77
2022-11-25T01:03:27.592Z,79.10
2022-11-25T01:04:29.769Z,85.00
2022-11-25T01:05:34.192Z,74.28
2022-11-25T01:06:38.063Z,70.70
2022-11-25T01:07:41.134Z,75.82
2022-11-25T01:08:43.357Z,71.20
2022-11-25T01:09:46.796Z,66.78
2022-11-25T01:10:48.817Z,62.33
2022-11-25T01:11:52.119Z,79.65
2022-11-25T01:12:54.255Z,57.63
2022-11-25T01:14:01.422Z,57.08
2022-11-25T01:15:04.464Z,101.30
2022-11-25T01:16:13.617Z,84.28
2022-11-25T01:17:16.859Z,116.60
2022-11-25T01:18:18.896Z,184.82
2022-11-25T01:19:22.096Z,239.63
2022-11-25T01:20:24.221Z,223.68
2022-11-25T01:21:31.007Z,99.03
2022-11-25T01:22:33.021Z,73.07
2022-11-25T01:23:39.217Z,74.00
2022-11-25T01:24:42.288Z,67.22
2022-11-25T01:25:44.334Z,58.35
2022-11-25T01:26:47.446Z,96.80
2022-11-25T01:27:49.789Z,72.65
2022-11-25T01:28:55.791Z,86.00
2022-11-25T01:29:57.808Z,56.55
2022-11-25T01:31:02.732Z,57.38
2022-11-25T01:32:06.316Z,143.77
2022-11-25T01:33:08.403Z,73.50
2022-11-25T01:34:15.614Z,58.65
2022-11-25T01:35:17.649Z,65.15
2022-11-25T01:36:20.791Z,63.13
2022-11-25T01:37:24.218Z,119.00
2022-11-25T01:38:27.290Z,121.22
2022-11-25T01:39:32.895Z,139.13
2022-11-25T01:40:37.443Z,306.85
2022-11-25T01:41:39.555Z,266.95
2022-11-25T01:42:44.400Z,171.07
2022-11-25T01:44:05.249Z,166.90
2022-11-25T01:45:33.748Z,118.88
2022-11-25T01:46:47.043Z,62.88
2022-11-25T01:47:50.995Z,110.88
2022-11-25T01:48:57.891Z,65.05
2022-11-25T01:50:04.561Z,54.08
2022-11-25T01:51:18.101Z,61.40
2022-11-25T01:52:28.613Z,63.90
2022-11-25T01:53:32.365Z,59.55
2022-11-25T01:54:41.614Z,121.70
2022-11-25T01:55:47.859Z,53.80
2022-11-25T01:56:55.196Z,56.28
2022-11-25T01:58:02.924Z,58.45
2022-11-25T01:59:06.293Z,53.15
2022-11-25T02:00:11.632Z,64.53
2022-11-25T02:01:21.800Z,83.95
2022-11-25T02:02:25.509Z,60.30
2022-11-25T02:03:32.136Z,98.63
2022-11-25T02:04:38.966Z,60.70
2022-11-25T02:05:50.659Z,67.60
2022-11-25T02:06:58.646Z,55.45
2022-11-25T02:08:02.594Z,55.47
2022-11-25T02:09:09.103Z,50.70
2022-11-25T02:10:15.760Z,54.05
2022-11-25T02:11:20.886Z,59.45
2022-11-25T02:12:23.064Z,52.13
2022-11-25T02:13:26.209Z,56.88
2022-11-25T02:14:28.938Z,63.25
2022-11-25T02:15:34.583Z,54.30
2022-11-25T02:16:39.139Z,49.60
2022-11-25T02:17:43.228Z,56.00
2022-11-25T02:18:45.481Z,52.70
2022-11-25T02:19:59.875Z,50.35
2022-11-25T02:21:03.958Z,56.28
2022-11-25T02:22:10.999Z,51.25
2022-11-25T02:23:25.635Z,57.25
2022-11-25T02:24:36.211Z,56.38
2022-11-25T02:25:41.374Z,55.03
2022-11-25T02:26:49.293Z,56.55
2022-11-25T02:27:55.223Z,50.92
2022-11-25T02:28:58.627Z,47.53
2022-11-25T02:30:00.712Z,47.97
2022-11-25T02:31:04.228Z,49.80
2022-11-25T02:32:06.568Z,47.50
2022-11-25T02:33:10.030Z,49.22
2022-11-25T02:34:12.146Z,58.72
2022-11-25T02:35:29.965Z,47.83
2022-11-25T02:36:32.658Z,45.42
2022-11-25T02:37:35.744Z,51.28
2022-11-25T02:38:40.984Z,48.97
2022-11-25T02:39:46.798Z,43.42
2022-11-25T02:40:55.134Z,43.05
2022-11-25T02:42:01.238Z,47.15
2022-11-25T02:43:03.473Z,50.20
2022-11-25T02:44:07.457Z,40.22
2022-11-25T02:45:15.654Z,47.47
2022-11-25T02:46:22.694Z,54.17
2022-11-25T02:47:24.963Z,47.67
2022-11-25T02:49:00.870Z,44.42
2022-11-25T02:49:53.353Z,48.20
2022-11-25T02:50:58.166Z,49.88
2022-11-25T02:52:00.234Z,50.85
2022-11-25T02:53:04.767Z,44.80
2022-11-25T02:54:06.953Z,43.30
2022-11-25T02:55:10.705Z,49.13
2022-11-25T02:56:15.316Z,42.05
2022-11-25T02:57:18.391Z,49.97
2022-11-25T02:58:22.161Z,44.97
2022-11-25T02:59:25.276Z,44.58
2022-11-25T03:00:27.583Z,39.58
2022-11-25T03:01:32.276Z,43.03
2022-11-25T03:02:34.615Z,46.45
2022-11-25T03:03:38.077Z,44.17
2022-11-25T03:04:42.075Z,46.42
2022-11-25T03:05:45.567Z,41.53
2022-11-25T03:06:47.563Z,46.17
2022-11-25T03:07:50.688Z,42.08
2022-11-25T03:08:55.173Z,46.47
2022-11-25T03:09:58.378Z,41.28
2022-11-25T03:11:00.446Z,39.38
2022-11-25T03:12:21.106Z,42.20
2022-11-25T03:13:28.261Z,44.40
2022-11-25T03:14:31.497Z,42.10
2022-11-25T03:15:34.104Z,43.45
2022-11-25T03:16:37.358Z,42.38
2022-11-25T03:17:40.359Z,40.95
2022-11-25T03:18:43.399Z,44.55
2022-11-25T03:19:45.509Z,34.17
2022-11-25T03:20:48.500Z,42.40
2022-11-25T03:21:51.173Z,37.35
2022-11-25T03:22:55.340Z,38.85
2022-11-25T03:23:59.825Z,40.40
2022-11-25T03:25:02.911Z,40.97
2022-11-25T03:26:06.216Z,38.83
2022-11-25T03:27:10.668Z,34.35
2022-11-25T03:28:13.532Z,35.50
2022-11-25T03:29:16.560Z,39.15
2022-11-25T03:30:21.021Z,45.53
2022-11-25T03:31:26.074Z,37.03
2022-11-25T03:32:28.178Z,35.50
2022-11-25T03:33:31.424Z,34.40
2022-11-25T03:34:33.572Z,35.08
2022-11-25T03:35:37.111Z,38.97
2022-11-25T03:36:40.078Z,39.80
2022-11-25T03:37:45.251Z,37.38
2022-11-25T03:38:47.699Z,37.80
2022-11-25T03:39:50.883Z,34.05
2022-11-25T03:40:53.179Z,36.00
2022-11-25T03:41:56.761Z,33.75
2022-11-25T03:43:00.157Z,35.40
2022-11-25T03:44:03.689Z,35.92
2022-11-25T03:45:07.102Z,37.90
2022-11-25T03:46:10.255Z,33.20
2022-11-25T03:47:12.843Z,37.63
2022-11-25T03:48:15.974Z,37.83
2022-11-25T03:49:18.521Z,36.13
2022-11-25T03:50:21.843Z,36.05
2022-11-25T03:51:24.310Z,38.80
2022-11-25T03:52:28.264Z,38.65
2022-11-25T03:53:31.399Z,43.10
2022-11-25T03:54:37.086Z,34.75
2022-11-25T03:55:56.770Z,38.40
2022-11-25T03:57:01.511Z,42.55
2022-11-25T03:58:06.122Z,41.60
2022-11-25T03:59:09.347Z,37.10
2022-11-25T04:00:12.748Z,41.83
2022-11-25T04:01:27.023Z,37.10
2022-11-25T04:02:29.419Z,32.95
2022-11-25T04:03:33.150Z,36.42
2022-11-25T04:04:35.861Z,37.42
2022-11-25T04:05:39.167Z,37.70
2022-11-25T04:06:42.858Z,39.08
2022-11-25T04:07:46.049Z,36.13
2022-11-25T04:08:48.292Z,36.10
2022-11-25T04:09:51.705Z,34.95
2022-11-25T04:10:58.140Z,36.13
2022-11-25T04:12:22.011Z,37.38
2022-11-25T04:13:31.081Z,33.60
2022-11-25T04:14:33.377Z,33.53
2022-11-25T04:15:36.611Z,36.85
2022-11-25T04:16:38.839Z,38.28
2022-11-25T04:17:42.449Z,36.00
2022-11-25T04:18:44.484Z,36.78
2022-11-25T04:19:47.476Z,38.67
2022-11-25T04:20:50.476Z,33.88
2022-11-25T04:21:53.150Z,38.42
2022-11-25T04:22:56.592Z,38.05
2022-11-25T04:23:58.700Z,36.45
2022-11-25T04:25:01.771Z,33.47
2022-11-25T04:26:04.786Z,40.35
2022-11-25T04:27:12.685Z,33.35
2022-11-25T04:28:14.786Z,33.72
2022-11-25T04:29:19.334Z,37.97
2022-11-25T04:30:21.544Z,37.30
2022-11-25T04:31:24.601Z,35.88
2022-11-25T04:32:27.465Z,41.05
2022-11-25T04:33:30.752Z,40.20
2022-11-25T04:34:32.891Z,37.33
2022-11-25T04:35:36.465Z,36.35
2022-11-25T04:36:38.934Z,34.72
2022-11-25T04:37:42.079Z,39.75
2022-11-25T04:38:44.582Z,41.45
2022-11-25T04:39:48.164Z,34.90
2022-11-25T04:40:53.065Z,38.00
2022-11-25T04:42:12.835Z,43.08
2022-11-25T04:43:16.026Z,35.72
2022-11-25T04:44:30.404Z,31.40
2022-11-25T04:45:51.568Z,36.92
2022-11-25T04:46:57.505Z,28.73
2022-11-25T04:47:59.726Z,38.50
2022-11-25T04:49:02.806Z,36.03
2022-11-25T04:50:07.389Z,32.78
2022-11-25T04:51:16.492Z,33.78
2022-11-25T04:52:19.303Z,34.30
2022-11-25T04:53:22.318Z,32.33
2022-11-25T04:54:24.357Z,35.60
2022-11-25T04:55:27.835Z,34.58
2022-11-25T04:56:30.840Z,37.00
2022-11-25T04:57:35.353Z,31.88
2022-11-25T04:58:57.910Z,32.25
2022-11-25T05:01:05.196Z,33.05
2022-11-25T05:02:12.224Z,32.00
2022-11-25T05:03:17.065Z,27.70
2022-11-25T05:04:19.060Z,27.90
2022-11-25T05:05:22.347Z,33.78
2022-11-25T05:06:25.057Z,37.10
2022-11-25T05:07:29.430Z,36.55
2022-11-25T05:08:32.411Z,27.48
2022-11-25T05:09:35.791Z,34.00
2022-11-25T05:11:01.132Z,31.58
2022-11-25T05:12:03.345Z,31.90
2022-11-25T05:13:06.580Z,34.30
2022-11-25T05:14:08.650Z,30.80
2022-11-25T05:15:13.321Z,34.10
2022-11-25T05:16:17.910Z,35.53
2022-11-25T05:17:23.409Z,30.83
2022-11-25T05:18:25.473Z,26.67
2022-11-25T05:19:28.729Z,30.17
2022-11-25T05:20:31.346Z,32.00
2022-11-25T05:21:34.850Z,35.75
2022-11-25T05:22:37.053Z,29.17
2022-11-25T05:23:42.356Z,31.98
2022-11-25T05:24:45.012Z,32.80
2022-11-25T05:25:49.048Z,29.52
2022-11-25T05:27:08.347Z,30.10
2022-11-25T05:28:10.351Z,32.13
2022-11-25T05:29:13.464Z,30.92
2022-11-25T05:30:17.913Z,29.90
2022-11-25T05:31:21.015Z,28.73
2022-11-25T05:32:24.106Z,28.58
2022-11-25T05:33:27.479Z,29.50
2022-11-25T05:34:29.799Z,31.73
2022-11-25T05:35:33.064Z,33.35
2022-11-25T05:36:35.314Z,28.30
2022-11-25T05:37:40.479Z,28.02
2022-11-25T05:38:43.568Z,29.50
2022-11-25T05:39:49.534Z,26.63
2022-11-25T05:41:18.937Z,24.13
2022-11-25T05:42:22.625Z,25.00
2022-11-25T05:43:24.913Z,29.73
2022-11-25T05:44:28.448Z,26.83
2022-11-25T05:45:31.918Z,26.40
2022-11-25T05:46:35.089Z,28.23
2022-11-25T05:47:37.626Z,26.80
2022-11-25T05:48:42.178Z,25.92
2022-11-25T05:49:44.322Z,27.20
2022-11-25T05:50:47.450Z,33.33
2022-11-25T05:51:56.150Z,26.77
2022-11-25T05:53:00.338Z,26.30
2022-11-25T05:54:04.285Z,24.50
2022-11-25T05:55:09.039Z,29.52
2022-11-25T05:56:12.159Z,26.67
2022-11-25T05:57:33.875Z,27.58
2022-11-25T05:58:45.230Z,25.33
2022-11-25T05:59:48.255Z,28.35
2022-11-25T06:00:58.273Z,27.33
2022-11-25T06:02:02.524Z,26.25
2022-11-25T06:03:05.172Z,26.00
2022-11-25T06:04:08.397Z,24.55
2022-11-25T06:05:10.439Z,23.05
2022-11-25T06:06:13.973Z,26.30
2022-11-25T06:07:16.829Z,19.23
2022-11-25T06:08:20.266Z,26.55
2022-11-25T06:09:23.502Z,21.08
2022-11-25T06:10:26.200Z,26.33
2022-11-25T06:11:29.322Z,22.75
2022-11-25T06:12:31.359Z,21.83
2022-11-25T06:13:35.003Z,22.42
2022-11-25T06:14:37.178Z,26.63
2022-11-25T06:15:42.878Z,24.23
2022-11-25T06:16:47.228Z,25.38
2022-11-25T06:17:59.154Z,21.92
2022-11-25T06:19:05.530Z,26.48
2022-11-25T06:20:09.930Z,23.70
2022-11-25T06:21:12.328Z,25.60
2022-11-25T06:22:15.377Z,24.20
2022-11-25T06:23:17.546Z,27.95
2022-11-25T06:24:21.866Z,24.13
2022-11-25T06:25:29.739Z,21.42
2022-11-25T06:26:33.162Z,28.02
2022-11-25T06:27:57.227Z,21.70
2022-11-25T06:28:59.134Z,22.80
2022-11-25T06:30:01.209Z,27.58
2022-11-25T06:31:09.560Z,32.47
2022-11-25T06:32:19.078Z,25.83
2022-11-25T06:33:38.619Z,30.65
2022-11-25T06:34:43.101Z,28.25
2022-11-25T06:36:05.758Z,24.58
2022-11-25T06:37:07.818Z,26.70
2022-11-25T06:38:10.863Z,27.63
2022-11-25T06:39:12.955Z,23.85
2022-11-25T06:40:15.988Z,18.65
2022-11-25T06:41:19.393Z,20.45
2022-11-25T06:42:21.381Z,31.25
2022-11-25T06:43:24.465Z,25.83
2022-11-25T06:44:26.536Z,24.38
2022-11-25T06:45:29.807Z,30.33
2022-11-25T06:46:31.889Z,23.27
2022-11-25T06:47:36.343Z,22.42
2022-11-25T06:48:38.539Z,23.88
2022-11-25T06:49:41.617Z,20.00
2022-11-25T06:50:44.684Z,22.25
2022-11-25T06:51:46.694Z,19.42
2022-11-25T06:52:49.727Z,28.27
2022-11-25T06:53:51.905Z,27.27
2022-11-25T06:54:55.005Z,23.00
2022-11-25T06:56:09.873Z,25.02
2022-11-25T06:57:17.431Z,30.00
2022-11-25T06:58:35.047Z,22.73
2022-11-25T06:59:39.399Z,24.20
2022-11-25T07:00:41.383Z,27.63
2022-11-25T07:01:44.571Z,22.38
2022-11-25T07:02:48.993Z,21.45
2022-11-25T07:03:53.726Z,23.10
2022-11-25T07:04:55.752Z,24.00
2022-11-25T07:05:59.271Z,21.80
2022-11-25T07:07:02.271Z,25.75
2022-11-25T07:08:04.573Z,23.83
2022-11-25T07:09:07.630Z,24.02
2022-11-25T07:10:11.201Z,24.77
2022-11-25T07:11:17.800Z,22.00
2022-11-25T07:12:20.828Z,27.13
2022-11-25T07:13:22.946Z,21.10
2022-11-25T07:14:26.047Z,23.67
2022-11-25T07:15:27.994Z,21.98
2022-11-25T07:16:32.223Z,24.80
2022-11-25T07:17:35.285Z,26.00
2022-11-25T07:18:40.021Z,27.90
2022-11-25T07:19:43.016Z,23.45
2022-11-25T07:20:45.024Z,18.75
2022-11-25T07:21:48.235Z,18.85
2022-11-25T07:22:50.219Z,23.95
2022-11-25T07:23:53.871Z,23.55
2022-11-25T07:24:56.871Z,20.55
2022-11-25T07:26:03.065Z,22.13
2022-11-25T07:27:06.898Z,19.90
2022-11-25T07:28:08.914Z,19.15
2022-11-25T07:29:43.919Z,20.17
2022-11-25T07:32:02.482Z,24.77
2022-11-25T07:33:08.206Z,31.70
2022-11-25T07:34:15.417Z,19.80
2022-11-25T07:35:17.422Z,23.58
2022-11-25T07:36:20.589Z,19.95
2022-11-25T07:37:23.657Z,30.73
2022-11-25T07:38:25.679Z,23.00
2022-11-25T07:39:28.709Z,25.27
2022-11-25T07:40:30.761Z,20.67
2022-11-25T07:41:34.136Z,21.92
2022-11-25T07:42:36.171Z,22.67
2022-11-25T07:43:41.072Z,23.55
2022-11-25T07:44:44.056Z,29.02
2022-11-25T07:46:12.435Z,26.15
2022-11-25T07:47:14.485Z,19.95
2022-11-25T07:48:17.510Z,24.83
2022-11-25T07:49:24.908Z,19.90
2022-11-25T07:50:26.995Z,26.50
2022-11-25T07:51:32.515Z,25.25
2022-11-25T07:52:35.573Z,24.42
2022-11-25T07:53:37.598Z,18.38
2022-11-25T07:54:40.686Z,21.08
2022-11-25T07:55:42.726Z,21.33
2022-11-25T07:56:45.867Z,17.27
2022-11-25T07:57:47.852Z,21.25
2022-11-25T07:58:50.984Z,19.90
2022-11-25T07:59:54.053Z,24.02
2022-11-25T08:00:56.085Z,24.08
2022-11-25T08:01:59.141Z,26.25
2022-11-25T08:03:01.260Z,20.05
2022-11-25T08:04:04.412Z,24.42
2022-11-25T08:05:09.973Z,21.40
2022-11-25T08:06:14.392Z,22.08
2022-11-25T08:07:17.393Z,18.48
2022-11-25T08:08:19.655Z,19.33
2022-11-25T08:09:25.201Z,22.80
2022-11-25T08:10:28.323Z,24.83
2022-11-25T08:11:33.097Z,20.60
2022-11-25T08:12:36.168Z,20.10
2022-11-25T08:13:39.953Z,18.52
2022-11-25T08:14:43.070Z,23.10
2022-11-25T08:15:45.178Z,22.80
2022-11-25T08:16:48.359Z,23.98
2022-11-25T08:17:52.693Z,19.58
2022-11-25T08:18:56.223Z,20.63
2022-11-25T08:19:59.253Z,23.23
2022-11-25T08:21:04.706Z,19.83
2022-11-25T08:22:08.672Z,16.98
2022-11-25T08:23:11.130Z,17.25
2022-11-25T08:24:16.534Z,21.85
2022-11-25T08:25:18.550Z,18.05
2022-11-25T08:26:25.670Z,20.63
2022-11-25T08:27:28.707Z,21.48
2022-11-25T08:28:31.047Z,21.65
2022-11-25T08:29:34.326Z,20.98
2022-11-25T08:30:36.592Z,21.00
2022-11-25T08:31:39.769Z,19.25
2022-11-25T08:32:42.025Z,16.95
2022-11-25T08:33:46.063Z,17.90
2022-11-25T08:34:48.374Z,22.00
2022-11-25T08:35:54.678Z,15.85
2022-11-25T08:37:00.383Z,18.15
2022-11-25T08:38:02.662Z,18.52
2022-11-25T08:39:28.933Z,15.68
2022-11-25T08:40:31.523Z,15.80
2022-11-25T08:41:37.700Z,19.55
2022-11-25T08:42:40.105Z,16.80
2022-11-25T08:43:44.124Z,18.73
2022-11-25T08:44:52.055Z,20.58
2022-11-25T08:45:55.677Z,16.20
2022-11-25T08:46:59.170Z,14.65
2022-11-25T08:48:01.490Z,22.88
2022-11-25T08:49:05.932Z,18.25
2022-11-25T08:50:11.304Z,17.33
2022-11-25T08:51:16.610Z,15.80
2022-11-25T08:52:21.287Z,15.65
2022-11-25T08:53:23.419Z,15.63
2022-11-25T08:54:26.490Z,16.35
2022-11-25T08:55:28.967Z,17.80
2022-11-25T08:56:34.753Z,15.60
2022-11-25T08:57:37.094Z,18.65
2022-11-25T08:58:40.714Z,16.55
2022-11-25T08:59:42.942Z,16.98
2022-11-25T09:00:46.404Z,20.75
2022-11-25T09:01:49.642Z,19.52
2022-11-25T09:02:51.880Z,18.92
2022-11-25T09:03:56.922Z,22.27
2022-11-25T09:04:59.973Z,18.13
2022-11-25T09:06:02.966Z,15.65
2022-11-25T09:07:06.267Z,15.90
2022-11-25T09:08:11.946Z,17.48
2022-11-25T09:09:15.168Z,16.92
2022-11-25T09:10:18.251Z,18.00
2022-11-25T09:11:21.353Z,20.88
2022-11-25T09:12:23.513Z,16.40
2022-11-25T09:13:26.652Z,18.52
2022-11-25T09:14:29.356Z,18.42
2022-11-25T09:15:32.570Z,17.13
2022-11-25T09:16:35.669Z,16.85
2022-11-25T09:17:37.782Z,16.48
2022-11-25T09:18:40.861Z,15.68
2022-11-25T09:19:44.008Z,16.55
2022-11-25T09:20:47.232Z,19.17
2022-11-25T09:21:50.318Z,16.98
2022-11-25T09:22:52.374Z,16.10
2022-11-25T09:23:56.895Z,19.13
2022-11-25T09:25:00.113Z,18.33
2022-11-25T09:26:03.144Z,21.25
2022-11-25T09:27:06.284Z,20.58
2022-11-25T09:28:09.725Z,18.15
2022-11-25T09:29:14.764Z,17.35
2022-11-25T09:30:16.979Z,22.40
2022-11-25T09:31:20.767Z,18.10
2022-11-25T09:32:22.835Z,24.80
2022-11-25T09:33:26.039Z,20.50
2022-11-25T09:34:29.091Z,18.33
2022-11-25T09:35:32.113Z,21.88
2022-11-25T09:36:35.208Z,22.45
2022-11-25T09:37:37.283Z,20.52
2022-11-25T09:38:43.310Z,18.23
2022-11-25T09:39:46.875Z,17.88
2022-11-25T09:40:56.392Z,22.70
2022-11-25T09:42:26.218Z,19.70
2022-11-25T09:43:58.528Z,18.42
2022-11-25T09:45:32.322Z,14.63
2022-11-25T09:46:56.655Z,16.58
2022-11-25T09:48:14.165Z,12.52
2022-11-25T09:49:31.898Z,15.57
2022-11-25T09:50:50.705Z,18.90
2022-11-25T09:52:08.006Z,20.60
2022-11-25T09:53:22.367Z,17.40
2022-11-25T09:54:30.979Z,15.88
2022-11-25T09:55:39.939Z,18.50
2022-11-25T09:56:47.822Z,16.75
2022-11-25T09:58:11.096Z,17.20
2022-11-25T09:59:19.713Z,17.77
2022-11-25T10:00:22.675Z,25.10
2022-11-25T10:01:28.158Z,23.73
2022-11-25T10:02:37.769Z,19.13
2022-11-25T10:03:45.706Z,16.98
2022-11-25T10:04:53.680Z,18.58
2022-11-25T10:06:03.483Z,19.73
2022-11-25T10:07:14.740Z,17.45
2022-11-25T10:08:22.861Z,21.55
2022-11-25T10:09:27.969Z,19.75
2022-11-25T10:10:34.962Z,20.35
2022-11-25T10:11:50.607Z,17.90
2022-11-25T10:12:54.668Z,15.93
2022-11-25T10:14:02.102Z,16.02
2022-11-25T10:15:08.095Z,17.52
2022-11-25T10:16:24.118Z,15.88
2022-11-25T10:17:36.888Z,19.15
2022-11-25T10:18:42.621Z,22.23
2022-11-25T10:19:56.489Z,22.73
2022-11-25T10:20:59.093Z,15.00
2022-11-25T10:22:22.586Z,15.95
2022-11-25T10:23:29.109Z,16.85
2022-11-25T10:24:33.383Z,13.77
2022-11-25T10:25:40.772Z,16.05
2022-11-25T10:26:46.258Z,16.95
2022-11-25T10:27:53.976Z,19.27
2022-11-25T10:29:18.319Z,20.10
2022-11-25T10:30:23.865Z,16.77
2022-11-25T10:31:34.343Z,14.32
2022-11-25T10:32:41.807Z,18.98
2022-11-25T10:33:48.655Z,14.38
2022-11-25T10:34:55.360Z,19.80
2022-11-25T10:36:06.109Z,19.02
2022-11-25T10:38:21.043Z,20.80
2022-11-25T10:39:27.125Z,17.80
2022-11-25T10:40:30.176Z,20.60
2022-11-25T10:41:36.092Z,20.50
2022-11-25T10:42:40.504Z,13.90
2022-11-25T10:43:44.736Z,17.25
2022-11-25T10:44:47.852Z,18.10
2022-11-25T10:46:03.880Z,17.55
2022-11-25T10:47:18.868Z,19.88
2022-11-25T10:48:44.615Z,21.50
2022-11-25T10:50:01.826Z,16.85
2022-11-25T10:51:18.623Z,17.23
2022-11-25T10:52:23.048Z,18.27
2022-11-25T10:53:30.040Z,17.08
2022-11-25T10:54:32.261Z,16.45
2022-11-25T10:55:36.002Z,18.77
2022-11-25T10:56:43.882Z,18.00
2022-11-25T10:57:48.372Z,17.75
2022-11-25T10:58:50.426Z,19.58
2022-11-25T10:59:57.989Z,18.13
2022-11-25T11:01:07.238Z,22.70
2022-11-25T11:02:20.512Z,15.63
2022-11-25T11:03:25.548Z,15.38
2022-11-25T11:04:28.855Z,21.00
2022-11-25T11:05:32.280Z,21.83
2022-11-25T11:06:38.020Z,17.27
2022-11-25T11:07:43.385Z,21.25
2022-11-25T11:08:46.518Z,19.98
2022-11-25T11:09:49.320Z,17.98
2022-11-25T11:11:15.383Z,15.07
2022-11-25T11:12:22.239Z,18.38
2022-11-25T11:13:33.193Z,20.77
2022-11-25T11:14:35.394Z,18.25
2022-11-25T11:15:47.862Z,17.85
2022-11-25T11:16:54.510Z,26.05
2022-11-25T11:17:58.358Z,23.17
2022-11-25T11:19:01.700Z,22.08
2022-11-25T11:20:16.440Z,27.00
2022-11-25T11:21:31.652Z,20.35
2022-11-25T11:22:34.371Z,22.23
2022-11-25T11:23:49.885Z,21.30
2022-11-25T11:25:06.537Z,24.42
2022-11-25T11:26:24.971Z,18.45
2022-11-25T11:27:27.022Z,26.95
2022-11-25T11:28:39.413Z,21.88
2022-11-25T11:29:42.543Z,24.73
2022-11-25T11:30:57.120Z,23.05
2022-11-25T11:32:02.705Z,21.02
2022-11-25T11:33:07.711Z,20.52
2022-11-25T11:34:30.138Z,24.25
2022-11-25T11:35:48.759Z,22.13
2022-11-25T11:37:11.550Z,17.92
2022-11-25T11:38:28.663Z,23.48
2022-11-25T11:39:59.975Z,22.67
2022-11-25T11:41:17.283Z,22.60
2022-11-25T11:42:29.885Z,21.27
2022-11-25T11:43:58.300Z,17.55
2022-11-25T11:45:13.788Z,24.45
2022-11-25T11:46:31.948Z,19.38
2022-11-25T11:47:45.006Z,19.77
2022-11-25T11:49:00.239Z,20.17
2022-11-25T11:50:24.354Z,21.17
2022-11-25T11:51:34.590Z,22.40
2022-11-25T11:52:49.702Z,20.23
2022-11-25T11:54:02.659Z,22.02
2022-11-25T11:55:21.226Z,22.88
2022-11-25T11:56:36.248Z,21.20
2022-11-25T11:57:49.966Z,18.75
2022-11-25T11:59:08.848Z,19.98
2022-11-25T12:00:14.842Z,18.10
2022-11-25T12:01:33.575Z,23.27
2022-11-25T12:02:51.004Z,17.65
2022-11-25T12:03:59.661Z,19.17
2022-11-25T12:05:16.720Z,19.67
2022-11-25T12:06:22.545Z,24.15
2022-11-25T12:07:33.651Z,17.75
2022-11-25T12:08:47.357Z,18.30
2022-11-25T12:09:55.553Z,22.92
2022-11-25T12:11:03.008Z,19.98
2022-11-25T12:12:09.448Z,23.63
2022-11-25T12:13:21.768Z,24.50
2022-11-25T12:14:34.044Z,25.23
2022-11-25T12:15:42.503Z,23.00
2022-11-25T12:16:48.627Z,29.55
2022-11-25T12:17:56.234Z,27.55
2022-11-25T12:19:05.717Z,21.10
2022-11-25T12:20:19.675Z,20.23
2022-11-25T12:21:41.684Z,22.45
2022-11-25T12:22:52.370Z,21.02
2022-11-25T12:24:04.301Z,23.38
2022-11-25T12:25:12.846Z,25.02
2022-11-25T12:26:23.000Z,22.48
2022-11-25T12:27:32.540Z,18.95
2022-11-25T12:28:38.113Z,20.50
2022-11-25T12:29:46.614Z,21.08
2022-11-25T12:31:05.193Z,21.23
2022-11-25T12:32:37.375Z,24.13
2022-11-25T12:33:53.168Z,20.92
2022-11-25T12:35:02.680Z,21.45
2022-11-25T12:36:10.470Z,22.20
2022-11-25T12:37:21.994Z,23.92
2022-11-25T12:38:37.465Z,21.85
2022-11-25T12:39:45.557Z,20.80
2022-11-25T12:40:54.483Z,27.08
2022-11-25T12:42:02.601Z,26.13
2022-11-25T12:43:26.620Z,23.00
2022-11-25T12:44:34.774Z,21.90
2022-11-25T12:45:41.214Z,19.35
2022-11-25T12:46:47.626Z,23.20
2022-11-25T12:47:50.202Z,21.02
2022-11-25T12:48:54.954Z,25.05
2022-11-25T12:49:58.841Z,25.60
2022-11-25T12:51:10.472Z,20.40
2022-11-25T12:52:40.874Z,17.73
2022-11-25T12:53:54.829Z,23.90
2022-11-25T12:55:14.798Z,30.55
2022-11-25T12:56:23.012Z,23.55
2022-11-25T12:57:52.904Z,20.20
2022-11-25T12:59:15.729Z,24.92
2022-11-25T13:00:41.126Z,16.67
2022-11-25T13:02:02.479Z,21.58
2022-11-25T13:03:40.987Z,20.20
2022-11-25T13:05:39.583Z,20.88
2022-11-25T13:07:13.022Z,22.17
2022-11-25T13:08:30.146Z,29.15
2022-11-25T13:09:53.510Z,21.17
2022-11-25T13:11:21.426Z,17.30
2022-11-25T13:12:42.101Z,22.23
2022-11-25T13:13:54.363Z,17.65
2022-11-25T13:15:16.359Z,27.35
2022-11-25T13:16:21.595Z,27.33
2022-11-25T13:17:27.404Z,21.27
2022-11-25T13:18:34.166Z,20.92
2022-11-25T13:19:37.974Z,20.75
2022-11-25T13:20:49.567Z,21.15
2022-11-25T13:22:01.318Z,21.55
2022-11-25T13:23:11.273Z,23.45
2022-11-25T13:24:29.692Z,18.10
2022-11-25T13:25:32.245Z,22.00
2022-11-25T13:26:39.256Z,21.30
2022-11-25T13:27:58.844Z,27.38
2022-11-25T13:29:06.714Z,20.60
2022-11-25T13:30:38.261Z,21.35
2022-11-25T13:33:52.472Z,21.35
2022-11-25T13:35:38.397Z,25.25
2022-11-25T13:36:45.979Z,24.10
2022-11-25T13:37:50.175Z,28.27
2022-11-25T13:39:04.308Z,24.90
2022-11-25T13:40:21.806Z,20.88
2022-11-25T13:41:36.742Z,29.08
2022-11-25T13:42:45.198Z,24.17
2022-11-25T13:44:01.119Z,22.15
2022-11-25T13:45:05.527Z,25.17
2022-11-25T13:46:07.806Z,22.92
2022-11-25T13:47:34.174Z,25.10
2022-11-25T13:48:38.262Z,23.27
2022-11-25T13:49:52.462Z,19.00
2022-11-25T13:51:18.331Z,21.35
2022-11-25T13:52:43.574Z,23.02
2022-11-25T13:53:52.755Z,21.80
2022-11-25T13:54:57.806Z,26.98
2022-11-25T13:56:15.107Z,21.35
2022-11-25T13:57:24.864Z,18.80
2022-11-25T13:58:29.455Z,22.52
2022-11-25T13:59:37.356Z,30.45
2022-11-25T14:01:05.502Z,26.60
2022-11-25T14:02:36.538Z,20.98
2022-11-25T14:03:57.516Z,21.65
2022-11-25T14:05:06.750Z,22.30
2022-11-25T14:06:20.133Z,22.83
2022-11-25T14:07:34.586Z,20.30
2022-11-25T14:08:44.592Z,17.85
2022-11-25T14:10:03.287Z,18.50
2022-11-25T14:11:39.256Z,19.95
2022-11-25T14:13:00.129Z,21.20
2022-11-25T14:15:38.781Z,19.80
2022-11-25T14:17:02.413Z,25.48
2022-11-25T14:19:03.639Z,21.15
2022-11-25T14:20:07.822Z,23.48
2022-11-25T14:21:22.543Z,25.65
2022-11-25T14:22:40.744Z,18.77
2022-11-25T14:24:07.846Z,22.00
2022-11-25T14:25:19.449Z,17.10
2022-11-25T14:26:48.612Z,22.05
2022-11-25T14:28:03.685Z,20.67
2022-11-25T14:29:14.611Z,18.45
2022-11-25T14:30:18.781Z,21.20
2022-11-25T14:31:29.401Z,20.45
2022-11-25T14:32:39.643Z,19.17
2022-11-25T14:33:50.455Z,22.17
2022-11-25T14:35:01.420Z,23.33